sensor_id;sensor_type;location;lat;lon;timestamp;P1;durP1;ratioP1;P2;durP2;ratioP2
9997;SDS011;5038;53.064;8.624;2024-01-30T00:01:37;22.70;;;20.70;;
9997;SDS011;5038;53.064;8.624;2024-01-30T00:04:05;20.43;;;18.63;;
9997;SDS011;5038;53.064;8.624;2024-01-30T00:06:33;21.00;;;19.23;;
9997;SDS011;5038;53.064;8.624;2024-01-30T00:09:02;19.47;;;17.67;;
9997;SDS011;5038;53.064;8.624;2024-01-30T00:11:31;20.50;;;18.80;;
9997;SDS011;5038;53.064;8.624;2024-01-30T00:13:59;21.50;;;19.60;;
9997;SDS011;5038;53.064;8.624;2024-01-30T00:16:28;21.57;;;19.53;;
9997;SDS011;5038;53.064;8.624;2024-01-30T00:18:57;19.97;;;18.20;;
9997;SDS011;5038;53.064;8.624;2024-01-30T00:21:26;20.47;;;18.57;;
9997;SDS011;5038;53.064;8.624;2024-01-30T00:23:54;21.10;;;19.20;;
9997;SDS011;5038;53.064;8.624;2024-01-30T00:26:22;19.50;;;17.70;;
9997;SDS011;5038;53.064;8.624;2024-01-30T00:28:50;21.23;;;19.20;;
9997;SDS011;5038;53.064;8.624;2024-01-30T00:31:19;20.50;;;18.60;;
9997;SDS011;5038;53.064;8.624;2024-01-30T00:33:47;19.53;;;17.83;;
9997;SDS011;5038;53.064;8.624;2024-01-30T00:36:17;18.73;;;17.03;;
9997;SDS011;5038;53.064;8.624;2024-01-30T00:38:45;18.87;;;17.27;;
9997;SDS011;5038;53.064;8.624;2024-01-30T00:41:14;20.53;;;18.83;;
9997;SDS011;5038;53.064;8.624;2024-01-30T00:43:44;19.93;;;18.33;;
9997;SDS011;5038;53.064;8.624;2024-01-30T00:46:13;20.30;;;18.30;;
9997;SDS011;5038;53.064;8.624;2024-01-30T00:48:41;20.73;;;18.90;;
9997;SDS011;5038;53.064;8.624;2024-01-30T00:51:09;19.97;;;18.17;;
9997;SDS011;5038;53.064;8.624;2024-01-30T00:53:39;20.10;;;18.30;;
9997;SDS011;5038;53.064;8.624;2024-01-30T00:56:08;18.90;;;17.30;;
9997;SDS011;5038;53.064;8.624;2024-01-30T00:58:36;19.77;;;18.10;;
9997;SDS011;5038;53.064;8.624;2024-01-30T01:01:04;19.63;;;17.87;;
9997;SDS011;5038;53.064;8.624;2024-01-30T01:03:34;20.13;;;18.43;;
9997;SDS011;5038;53.064;8.624;2024-01-30T01:06:02;19.33;;;17.50;;
9997;SDS011;5038;53.064;8.624;2024-01-30T01:08:31;19.10;;;17.40;;
9997;SDS011;5038;53.064;8.624;2024-01-30T01:11:00;21.03;;;19.13;;
9997;SDS011;5038;53.064;8.624;2024-01-30T01:13:29;18.97;;;17.23;;
9997;SDS011;5038;53.064;8.624;2024-01-30T01:15:58;19.83;;;17.93;;
9997;SDS011;5038;53.064;8.624;2024-01-30T01:18:26;18.27;;;16.67;;
9997;SDS011;5038;53.064;8.624;2024-01-30T01:20:54;20.00;;;18.23;;
9997;SDS011;5038;53.064;8.624;2024-01-30T01:23:22;19.17;;;17.50;;
9997;SDS011;5038;53.064;8.624;2024-01-30T01:25:51;19.33;;;17.53;;
9997;SDS011;5038;53.064;8.624;2024-01-30T01:28:21;20.10;;;18.40;;
9997;SDS011;5038;53.064;8.624;2024-01-30T01:30:49;19.70;;;17.90;;
9997;SDS011;5038;53.064;8.624;2024-01-30T01:33:18;20.60;;;18.73;;
9997;SDS011;5038;53.064;8.624;2024-01-30T01:35:46;19.83;;;18.20;;
9997;SDS011;5038;53.064;8.624;2024-01-30T01:38:14;20.00;;;18.23;;
9997;SDS011;5038;53.064;8.624;2024-01-30T01:40:42;16.27;;;14.90;;
9997;SDS011;5038;53.064;8.624;2024-01-30T01:43:11;19.13;;;17.43;;
9997;SDS011;5038;53.064;8.624;2024-01-30T01:45:40;19.70;;;17.90;;
9997;SDS011;5038;53.064;8.624;2024-01-30T01:48:08;19.07;;;17.37;;
9997;SDS011;5038;53.064;8.624;2024-01-30T01:50:37;17.93;;;16.23;;
9997;SDS011;5038;53.064;8.624;2024-01-30T01:53:06;19.23;;;17.63;;
9997;SDS011;5038;53.064;8.624;2024-01-30T01:55:36;19.37;;;17.70;;
9997;SDS011;5038;53.064;8.624;2024-01-30T01:58:05;17.40;;;15.90;;
9997;SDS011;5038;53.064;8.624;2024-01-30T02:00:35;18.60;;;16.90;;
9997;SDS011;5038;53.064;8.624;2024-01-30T02:03:08;19.57;;;17.97;;
9997;SDS011;5038;53.064;8.624;2024-01-30T02:05:39;18.50;;;16.90;;
9997;SDS011;5038;53.064;8.624;2024-01-30T02:08:08;19.63;;;17.83;;
9997;SDS011;5038;53.064;8.624;2024-01-30T02:10:37;18.10;;;16.50;;
9997;SDS011;5038;53.064;8.624;2024-01-30T02:13:05;19.63;;;17.77;;
9997;SDS011;5038;53.064;8.624;2024-01-30T02:15:33;18.73;;;17.13;;
9997;SDS011;5038;53.064;8.624;2024-01-30T02:18:02;19.97;;;18.30;;
9997;SDS011;5038;53.064;8.624;2024-01-30T02:20:31;18.83;;;17.23;;
9997;SDS011;5038;53.064;8.624;2024-01-30T02:23:04;20.00;;;18.30;;
9997;SDS011;5038;53.064;8.624;2024-01-30T02:25:39;19.90;;;17.80;;
9997;SDS011;5038;53.064;8.624;2024-01-30T02:28:10;20.33;;;18.57;;
9997;SDS011;5038;53.064;8.624;2024-01-30T02:30:39;19.30;;;17.60;;
9997;SDS011;5038;53.064;8.624;2024-01-30T02:33:08;19.97;;;18.27;;
9997;SDS011;5038;53.064;8.624;2024-01-30T02:35:36;20.33;;;18.43;;
9997;SDS011;5038;53.064;8.624;2024-01-30T02:38:05;19.87;;;17.77;;
9997;SDS011;5038;53.064;8.624;2024-01-30T02:40:34;20.40;;;18.53;;
9997;SDS011;5038;53.064;8.624;2024-01-30T02:43:02;20.83;;;19.07;;
9997;SDS011;5038;53.064;8.624;2024-01-30T02:45:31;23.00;;;20.90;;
9997;SDS011;5038;53.064;8.624;2024-01-30T02:47:59;19.60;;;17.90;;
9997;SDS011;5038;53.064;8.624;2024-01-30T02:50:26;20.80;;;18.90;;
9997;SDS011;5038;53.064;8.624;2024-01-30T02:52:54;19.23;;;17.63;;
9997;SDS011;5038;53.064;8.624;2024-01-30T02:55:24;19.47;;;17.60;;
9997;SDS011;5038;53.064;8.624;2024-01-30T02:57:52;21.37;;;19.40;;
9997;SDS011;5038;53.064;8.624;2024-01-30T03:00:20;20.43;;;18.73;;
9997;SDS011;5038;53.064;8.624;2024-01-30T03:02:49;20.13;;;18.30;;
9997;SDS011;5038;53.064;8.624;2024-01-30T03:05:17;21.27;;;19.20;;
9997;SDS011;5038;53.064;8.624;2024-01-30T03:07:45;20.33;;;18.53;;
9997;SDS011;5038;53.064;8.624;2024-01-30T03:10:13;21.03;;;19.10;;
9997;SDS011;5038;53.064;8.624;2024-01-30T03:12:43;19.30;;;17.70;;
9997;SDS011;5038;53.064;8.624;2024-01-30T03:15:11;19.03;;;17.43;;
9997;SDS011;5038;53.064;8.624;2024-01-30T03:17:40;19.27;;;17.53;;
9997;SDS011;5038;53.064;8.624;2024-01-30T03:20:09;18.80;;;17.20;;
9997;SDS011;5038;53.064;8.624;2024-01-30T03:22:38;19.67;;;17.93;;
9997;SDS011;5038;53.064;8.624;2024-01-30T03:25:06;19.80;;;17.90;;
9997;SDS011;5038;53.064;8.624;2024-01-30T03:27:35;21.13;;;19.03;;
9997;SDS011;5038;53.064;8.624;2024-01-30T03:30:06;20.17;;;18.30;;
9997;SDS011;5038;53.064;8.624;2024-01-30T03:32:35;20.00;;;18.30;;
9997;SDS011;5038;53.064;8.624;2024-01-30T03:35:03;21.00;;;19.20;;
9997;SDS011;5038;53.064;8.624;2024-01-30T03:37:32;20.33;;;18.53;;
9997;SDS011;5038;53.064;8.624;2024-01-30T03:40:01;20.30;;;18.50;;
9997;SDS011;5038;53.064;8.624;2024-01-30T03:42:30;20.53;;;18.70;;
9997;SDS011;5038;53.064;8.624;2024-01-30T03:44:58;21.60;;;19.47;;
9997;SDS011;5038;53.064;8.624;2024-01-30T03:47:27;21.30;;;19.30;;
9997;SDS011;5038;53.064;8.624;2024-01-30T03:49:56;20.63;;;18.83;;
9997;SDS011;5038;53.064;8.624;2024-01-30T03:52:24;21.27;;;19.23;;
9997;SDS011;5038;53.064;8.624;2024-01-30T03:54:52;21.30;;;19.30;;
9997;SDS011;5038;53.064;8.624;2024-01-30T03:57:21;20.90;;;18.70;;
9997;SDS011;5038;53.064;8.624;2024-01-30T03:59:49;23.03;;;20.93;;
9997;SDS011;5038;53.064;8.624;2024-01-30T04:02:17;20.80;;;18.80;;
9997;SDS011;5038;53.064;8.624;2024-01-30T04:04:47;21.07;;;19.17;;
9997;SDS011;5038;53.064;8.624;2024-01-30T04:07:15;21.83;;;19.73;;
9997;SDS011;5038;53.064;8.624;2024-01-30T04:09:46;22.20;;;20.20;;
9997;SDS011;5038;53.064;8.624;2024-01-30T04:12:15;24.00;;;21.90;;
9997;SDS011;5038;53.064;8.624;2024-01-30T04:14:43;23.30;;;21.10;;
9997;SDS011;5038;53.064;8.624;2024-01-30T04:17:11;27.60;;;24.90;;
9997;SDS011;5038;53.064;8.624;2024-01-30T04:19:40;25.97;;;23.43;;
9997;SDS011;5038;53.064;8.624;2024-01-30T04:22:10;25.63;;;23.23;;
9997;SDS011;5038;53.064;8.624;2024-01-30T04:24:38;24.10;;;21.87;;
9997;SDS011;5038;53.064;8.624;2024-01-30T04:27:07;28.43;;;25.63;;
9997;SDS011;5038;53.064;8.624;2024-01-30T04:29:35;33.63;;;30.20;;
9997;SDS011;5038;53.064;8.624;2024-01-30T04:32:03;25.20;;;22.67;;
9997;SDS011;5038;53.064;8.624;2024-01-30T04:34:32;22.97;;;20.87;;
9997;SDS011;5038;53.064;8.624;2024-01-30T04:37:00;22.80;;;20.60;;
9997;SDS011;5038;53.064;8.624;2024-01-30T04:39:30;23.00;;;20.83;;
9997;SDS011;5038;53.064;8.624;2024-01-30T04:42:00;22.30;;;20.27;;
9997;SDS011;5038;53.064;8.624;2024-01-30T04:44:30;22.47;;;20.33;;
9997;SDS011;5038;53.064;8.624;2024-01-30T04:46:58;23.30;;;21.20;;
9997;SDS011;5038;53.064;8.624;2024-01-30T04:49:28;24.70;;;22.43;;
9997;SDS011;5038;53.064;8.624;2024-01-30T04:51:56;22.10;;;20.20;;
9997;SDS011;5038;53.064;8.624;2024-01-30T04:54:25;21.80;;;19.90;;
9997;SDS011;5038;53.064;8.624;2024-01-30T04:56:54;22.50;;;20.57;;
9997;SDS011;5038;53.064;8.624;2024-01-30T04:59:23;26.10;;;23.50;;
9997;SDS011;5038;53.064;8.624;2024-01-30T05:01:51;25.37;;;22.87;;
9997;SDS011;5038;53.064;8.624;2024-01-30T05:04:19;26.03;;;23.63;;
9997;SDS011;5038;53.064;8.624;2024-01-30T05:06:48;30.40;;;27.60;;
9997;SDS011;5038;53.064;8.624;2024-01-30T05:09:16;24.67;;;22.27;;
9997;SDS011;5038;53.064;8.624;2024-01-30T05:11:45;23.23;;;21.23;;
9997;SDS011;5038;53.064;8.624;2024-01-30T05:14:14;24.30;;;21.87;;
9997;SDS011;5038;53.064;8.624;2024-01-30T05:16:43;23.57;;;21.57;;
9997;SDS011;5038;53.064;8.624;2024-01-30T05:19:13;24.60;;;22.40;;
9997;SDS011;5038;53.064;8.624;2024-01-30T05:21:41;24.93;;;22.93;;
9997;SDS011;5038;53.064;8.624;2024-01-30T05:24:10;24.70;;;22.50;;
9997;SDS011;5038;53.064;8.624;2024-01-30T05:26:38;26.17;;;24.00;;
9997;SDS011;5038;53.064;8.624;2024-01-30T05:29:06;25.70;;;23.50;;
9997;SDS011;5038;53.064;8.624;2024-01-30T05:31:36;25.43;;;23.13;;
9997;SDS011;5038;53.064;8.624;2024-01-30T05:34:04;24.33;;;22.13;;
9997;SDS011;5038;53.064;8.624;2024-01-30T05:36:33;35.20;;;31.43;;
9997;SDS011;5038;53.064;8.624;2024-01-30T05:39:01;23.67;;;21.37;;
9997;SDS011;5038;53.064;8.624;2024-01-30T05:41:34;22.07;;;20.07;;
9997;SDS011;5038;53.064;8.624;2024-01-30T05:44:02;22.37;;;20.30;;
9997;SDS011;5038;53.064;8.624;2024-01-30T05:46:31;23.67;;;21.63;;
9997;SDS011;5038;53.064;8.624;2024-01-30T05:49:00;22.47;;;20.47;;
9997;SDS011;5038;53.064;8.624;2024-01-30T05:51:29;23.10;;;21.10;;
9997;SDS011;5038;53.064;8.624;2024-01-30T05:53:57;26.73;;;24.40;;
9997;SDS011;5038;53.064;8.624;2024-01-30T05:56:25;29.00;;;26.10;;
9997;SDS011;5038;53.064;8.624;2024-01-30T05:58:54;26.47;;;24.13;;
9997;SDS011;5038;53.064;8.624;2024-01-30T06:01:23;23.23;;;21.03;;
9997;SDS011;5038;53.064;8.624;2024-01-30T06:03:51;30.03;;;27.33;;
9997;SDS011;5038;53.064;8.624;2024-01-30T06:06:21;24.10;;;21.97;;
9997;SDS011;5038;53.064;8.624;2024-01-30T06:08:49;25.07;;;22.97;;
9997;SDS011;5038;53.064;8.624;2024-01-30T06:11:17;24.07;;;21.87;;
9997;SDS011;5038;53.064;8.624;2024-01-30T06:13:45;24.10;;;22.00;;
9997;SDS011;5038;53.064;8.624;2024-01-30T06:16:14;26.37;;;23.93;;
9997;SDS011;5038;53.064;8.624;2024-01-30T06:18:42;25.07;;;22.87;;
9997;SDS011;5038;53.064;8.624;2024-01-30T06:21:10;24.80;;;22.50;;
9997;SDS011;5038;53.064;8.624;2024-01-30T06:23:40;26.60;;;23.87;;
9997;SDS011;5038;53.064;8.624;2024-01-30T06:26:08;24.67;;;22.47;;
9997;SDS011;5038;53.064;8.624;2024-01-30T06:28:37;24.73;;;22.33;;
9997;SDS011;5038;53.064;8.624;2024-01-30T06:31:05;25.17;;;22.77;;
9997;SDS011;5038;53.064;8.624;2024-01-30T06:33:33;24.97;;;22.83;;
9997;SDS011;5038;53.064;8.624;2024-01-30T06:36:02;24.97;;;22.60;;
9997;SDS011;5038;53.064;8.624;2024-01-30T06:38:30;26.10;;;23.60;;
9997;SDS011;5038;53.064;8.624;2024-01-30T06:41:00;26.03;;;23.53;;
9997;SDS011;5038;53.064;8.624;2024-01-30T06:43:28;25.43;;;23.03;;
9997;SDS011;5038;53.064;8.624;2024-01-30T06:45:56;26.47;;;24.03;;
9997;SDS011;5038;53.064;8.624;2024-01-30T06:48:24;26.60;;;24.13;;
9997;SDS011;5038;53.064;8.624;2024-01-30T06:50:53;24.90;;;22.80;;
9997;SDS011;5038;53.064;8.624;2024-01-30T06:53:21;25.23;;;22.83;;
9997;SDS011;5038;53.064;8.624;2024-01-30T06:55:49;24.27;;;22.07;;
9997;SDS011;5038;53.064;8.624;2024-01-30T06:58:20;25.97;;;23.50;;
9997;SDS011;5038;53.064;8.624;2024-01-30T07:00:48;25.83;;;23.43;;
9997;SDS011;5038;53.064;8.624;2024-01-30T07:03:17;26.67;;;24.07;;
9997;SDS011;5038;53.064;8.624;2024-01-30T07:05:45;24.77;;;22.67;;
9997;SDS011;5038;53.064;8.624;2024-01-30T07:08:13;25.60;;;23.00;;
9997;SDS011;5038;53.064;8.624;2024-01-30T07:10:43;23.93;;;21.80;;
9997;SDS011;5038;53.064;8.624;2024-01-30T07:13:12;25.30;;;22.87;;
9997;SDS011;5038;53.064;8.624;2024-01-30T07:15:44;25.70;;;23.20;;
9997;SDS011;5038;53.064;8.624;2024-01-30T07:18:12;26.03;;;23.53;;
9997;SDS011;5038;53.064;8.624;2024-01-30T07:20:41;26.07;;;23.60;;
9997;SDS011;5038;53.064;8.624;2024-01-30T07:23:12;24.83;;;22.23;;
9997;SDS011;5038;53.064;8.624;2024-01-30T07:25:43;24.03;;;21.73;;
9997;SDS011;5038;53.064;8.624;2024-01-30T07:28:15;24.33;;;22.17;;
9997;SDS011;5038;53.064;8.624;2024-01-30T07:30:45;26.67;;;23.90;;
9997;SDS011;5038;53.064;8.624;2024-01-30T07:33:15;26.47;;;24.07;;
9997;SDS011;5038;53.064;8.624;2024-01-30T07:35:44;26.43;;;23.80;;
9997;SDS011;5038;53.064;8.624;2024-01-30T07:38:13;25.13;;;22.83;;
9997;SDS011;5038;53.064;8.624;2024-01-30T07:40:41;26.63;;;24.10;;
9997;SDS011;5038;53.064;8.624;2024-01-30T07:43:09;24.70;;;22.57;;
9997;SDS011;5038;53.064;8.624;2024-01-30T07:45:38;25.93;;;23.73;;
9997;SDS011;5038;53.064;8.624;2024-01-30T07:48:08;25.23;;;22.97;;
9997;SDS011;5038;53.064;8.624;2024-01-30T07:50:36;26.10;;;23.77;;
9997;SDS011;5038;53.064;8.624;2024-01-30T07:53:04;26.60;;;24.20;;
9997;SDS011;5038;53.064;8.624;2024-01-30T07:55:32;26.67;;;24.17;;
9997;SDS011;5038;53.064;8.624;2024-01-30T07:58:01;26.03;;;23.67;;
9997;SDS011;5038;53.064;8.624;2024-01-30T08:00:31;26.93;;;23.67;;
9997;SDS011;5038;53.064;8.624;2024-01-30T08:02:59;25.97;;;23.63;;
9997;SDS011;5038;53.064;8.624;2024-01-30T08:05:29;25.57;;;23.07;;
9997;SDS011;5038;53.064;8.624;2024-01-30T08:07:57;26.93;;;24.23;;
9997;SDS011;5038;53.064;8.624;2024-01-30T08:10:25;26.07;;;23.73;;
9997;SDS011;5038;53.064;8.624;2024-01-30T08:12:54;25.37;;;23.10;;
9997;SDS011;5038;53.064;8.624;2024-01-30T08:15:22;26.20;;;23.60;;
9997;SDS011;5038;53.064;8.624;2024-01-30T08:17:50;24.77;;;22.57;;
9997;SDS011;5038;53.064;8.624;2024-01-30T08:20:22;24.83;;;22.67;;
9997;SDS011;5038;53.064;8.624;2024-01-30T08:22:52;24.57;;;22.47;;
9997;SDS011;5038;53.064;8.624;2024-01-30T08:25:20;25.00;;;22.53;;
9997;SDS011;5038;53.064;8.624;2024-01-30T08:27:49;24.37;;;22.17;;
9997;SDS011;5038;53.064;8.624;2024-01-30T08:30:17;24.43;;;22.00;;
9997;SDS011;5038;53.064;8.624;2024-01-30T08:32:46;24.87;;;22.77;;
9997;SDS011;5038;53.064;8.624;2024-01-30T08:35:14;24.70;;;22.60;;
9997;SDS011;5038;53.064;8.624;2024-01-30T08:37:43;27.80;;;25.30;;
9997;SDS011;5038;53.064;8.624;2024-01-30T08:40:13;25.63;;;23.40;;
9997;SDS011;5038;53.064;8.624;2024-01-30T08:42:41;25.10;;;23.03;;
9997;SDS011;5038;53.064;8.624;2024-01-30T08:45:09;23.63;;;21.60;;
9997;SDS011;5038;53.064;8.624;2024-01-30T08:47:38;26.03;;;23.80;;
9997;SDS011;5038;53.064;8.624;2024-01-30T08:50:08;26.53;;;24.43;;
9997;SDS011;5038;53.064;8.624;2024-01-30T08:52:37;25.33;;;23.17;;
9997;SDS011;5038;53.064;8.624;2024-01-30T08:55:06;24.40;;;22.30;;
9997;SDS011;5038;53.064;8.624;2024-01-30T08:57:36;24.33;;;22.23;;
9997;SDS011;5038;53.064;8.624;2024-01-30T09:00:05;25.40;;;23.17;;
9997;SDS011;5038;53.064;8.624;2024-01-30T09:02:35;24.67;;;22.53;;
9997;SDS011;5038;53.064;8.624;2024-01-30T09:05:04;23.17;;;21.17;;
9997;SDS011;5038;53.064;8.624;2024-01-30T09:07:32;23.50;;;21.50;;
9997;SDS011;5038;53.064;8.624;2024-01-30T09:10:01;23.40;;;21.30;;
9997;SDS011;5038;53.064;8.624;2024-01-30T09:12:29;23.20;;;21.20;;
9997;SDS011;5038;53.064;8.624;2024-01-30T09:14:58;23.73;;;21.70;;
9997;SDS011;5038;53.064;8.624;2024-01-30T09:17:27;25.13;;;23.03;;
9997;SDS011;5038;53.064;8.624;2024-01-30T09:19:55;23.90;;;21.70;;
9997;SDS011;5038;53.064;8.624;2024-01-30T09:22:23;21.93;;;20.03;;
9997;SDS011;5038;53.064;8.624;2024-01-30T09:24:52;23.67;;;21.77;;
9997;SDS011;5038;53.064;8.624;2024-01-30T09:27:20;22.93;;;21.00;;
9997;SDS011;5038;53.064;8.624;2024-01-30T09:29:48;23.47;;;21.47;;
9997;SDS011;5038;53.064;8.624;2024-01-30T09:32:18;21.73;;;19.83;;
9997;SDS011;5038;53.064;8.624;2024-01-30T09:34:46;23.43;;;21.47;;
9997;SDS011;5038;53.064;8.624;2024-01-30T09:37:14;22.00;;;20.10;;
9997;SDS011;5038;53.064;8.624;2024-01-30T09:39:44;21.33;;;19.40;;
9997;SDS011;5038;53.064;8.624;2024-01-30T09:42:21;21.87;;;19.90;;
9997;SDS011;5038;53.064;8.624;2024-01-30T09:44:55;21.40;;;19.63;;
9997;SDS011;5038;53.064;8.624;2024-01-30T09:47:25;21.40;;;19.53;;
9997;SDS011;5038;53.064;8.624;2024-01-30T09:49:54;22.30;;;20.30;;
9997;SDS011;5038;53.064;8.624;2024-01-30T09:52:24;21.67;;;19.60;;
9997;SDS011;5038;53.064;8.624;2024-01-30T09:54:53;22.53;;;20.63;;
9997;SDS011;5038;53.064;8.624;2024-01-30T09:57:21;21.50;;;19.60;;
9997;SDS011;5038;53.064;8.624;2024-01-30T09:59:49;21.80;;;19.83;;
9997;SDS011;5038;53.064;8.624;2024-01-30T10:02:20;20.37;;;18.70;;
9997;SDS011;5038;53.064;8.624;2024-01-30T10:04:50;20.87;;;19.07;;
9997;SDS011;5038;53.064;8.624;2024-01-30T10:07:19;22.07;;;20.00;;
9997;SDS011;5038;53.064;8.624;2024-01-30T10:09:48;20.97;;;19.17;;
9997;SDS011;5038;53.064;8.624;2024-01-30T10:12:16;20.30;;;18.50;;
9997;SDS011;5038;53.064;8.624;2024-01-30T10:14:45;20.40;;;18.60;;
9997;SDS011;5038;53.064;8.624;2024-01-30T10:17:13;19.23;;;17.30;;
9997;SDS011;5038;53.064;8.624;2024-01-30T10:19:55;19.30;;;17.60;;
9997;SDS011;5038;53.064;8.624;2024-01-30T10:22:23;18.63;;;16.93;;
9997;SDS011;5038;53.064;8.624;2024-01-30T10:24:52;18.87;;;17.07;;
9997;SDS011;5038;53.064;8.624;2024-01-30T10:27:23;18.87;;;17.13;;
9997;SDS011;5038;53.064;8.624;2024-01-30T10:29:53;19.63;;;17.97;;
9997;SDS011;5038;53.064;8.624;2024-01-30T10:32:21;19.50;;;17.90;;
9997;SDS011;5038;53.064;8.624;2024-01-30T10:34:49;18.13;;;16.53;;
9997;SDS011;5038;53.064;8.624;2024-01-30T10:37:19;19.40;;;17.60;;
9997;SDS011;5038;53.064;8.624;2024-01-30T10:39:53;18.03;;;16.33;;
9997;SDS011;5038;53.064;8.624;2024-01-30T10:42:25;17.50;;;15.80;;
9997;SDS011;5038;53.064;8.624;2024-01-30T10:44:56;17.03;;;15.57;;
9997;SDS011;5038;53.064;8.624;2024-01-30T10:47:28;17.47;;;16.00;;
9997;SDS011;5038;53.064;8.624;2024-01-30T10:49:57;16.43;;;14.93;;
9997;SDS011;5038;53.064;8.624;2024-01-30T10:52:27;17.60;;;15.90;;
9997;SDS011;5038;53.064;8.624;2024-01-30T10:54:57;16.33;;;14.93;;
9997;SDS011;5038;53.064;8.624;2024-01-30T10:57:27;17.47;;;15.73;;
9997;SDS011;5038;53.064;8.624;2024-01-30T10:59:56;16.17;;;14.80;;
9997;SDS011;5038;53.064;8.624;2024-01-30T11:02:26;17.03;;;15.50;;
9997;SDS011;5038;53.064;8.624;2024-01-30T11:04:55;16.10;;;14.60;;
9997;SDS011;5038;53.064;8.624;2024-01-30T11:07:27;17.63;;;16.03;;
9997;SDS011;5038;53.064;8.624;2024-01-30T11:09:59;17.10;;;15.67;;
9997;SDS011;5038;53.064;8.624;2024-01-30T11:12:29;17.50;;;15.70;;
9997;SDS011;5038;53.064;8.624;2024-01-30T11:15:03;17.47;;;15.87;;
9997;SDS011;5038;53.064;8.624;2024-01-30T11:17:40;17.50;;;15.80;;
9997;SDS011;5038;53.064;8.624;2024-01-30T11:20:12;18.67;;;16.77;;
9997;SDS011;5038;53.064;8.624;2024-01-30T11:22:44;18.37;;;16.77;;
9997;SDS011;5038;53.064;8.624;2024-01-30T11:25:13;16.77;;;15.37;;
9997;SDS011;5038;53.064;8.624;2024-01-30T11:27:42;17.50;;;16.03;;
9997;SDS011;5038;53.064;8.624;2024-01-30T11:30:11;16.33;;;14.97;;
9997;SDS011;5038;53.064;8.624;2024-01-30T11:32:57;18.60;;;16.77;;
9997;SDS011;5038;53.064;8.624;2024-01-30T11:35:32;16.67;;;15.27;;
9997;SDS011;5038;53.064;8.624;2024-01-30T11:38:02;18.17;;;16.67;;
9997;SDS011;5038;53.064;8.624;2024-01-30T11:40:32;16.63;;;15.10;;
9997;SDS011;5038;53.064;8.624;2024-01-30T11:46:20;17.17;;;15.67;;
9997;SDS011;5038;53.064;8.624;2024-01-30T11:48:52;18.00;;;16.50;;
9997;SDS011;5038;53.064;8.624;2024-01-30T11:51:21;17.67;;;16.00;;
9997;SDS011;5038;53.064;8.624;2024-01-30T11:53:50;17.80;;;15.90;;
9997;SDS011;5038;53.064;8.624;2024-01-30T11:56:19;16.93;;;15.33;;
9997;SDS011;5038;53.064;8.624;2024-01-30T11:58:47;16.93;;;15.23;;
9997;SDS011;5038;53.064;8.624;2024-01-30T12:01:16;16.03;;;14.67;;
9997;SDS011;5038;53.064;8.624;2024-01-30T12:03:49;16.90;;;15.20;;
9997;SDS011;5038;53.064;8.624;2024-01-30T12:06:17;17.90;;;16.30;;
9997;SDS011;5038;53.064;8.624;2024-01-30T12:08:56;15.83;;;14.53;;
9997;SDS011;5038;53.064;8.624;2024-01-30T12:11:26;16.47;;;14.80;;
9997;SDS011;5038;53.064;8.624;2024-01-30T12:13:56;15.57;;;14.07;;
9997;SDS011;5038;53.064;8.624;2024-01-30T12:16:25;16.07;;;14.57;;
9997;SDS011;5038;53.064;8.624;2024-01-30T12:19:02;15.93;;;13.77;;
9997;SDS011;5038;53.064;8.624;2024-01-30T12:21:31;18.20;;;13.97;;
9997;SDS011;5038;53.064;8.624;2024-01-30T12:24:00;17.30;;;14.93;;
9997;SDS011;5038;53.064;8.624;2024-01-30T12:26:29;15.13;;;13.63;;
9997;SDS011;5038;53.064;8.624;2024-01-30T12:28:57;16.23;;;13.30;;
9997;SDS011;5038;53.064;8.624;2024-01-30T12:31:26;15.27;;;13.47;;
9997;SDS011;5038;53.064;8.624;2024-01-30T12:33:55;15.40;;;14.00;;
9997;SDS011;5038;53.064;8.624;2024-01-30T12:36:25;14.30;;;12.90;;
9997;SDS011;5038;53.064;8.624;2024-01-30T12:38:53;14.40;;;12.80;;
9997;SDS011;5038;53.064;8.624;2024-01-30T12:41:23;13.90;;;12.50;;
9997;SDS011;5038;53.064;8.624;2024-01-30T12:43:54;15.20;;;13.50;;
9997;SDS011;5038;53.064;8.624;2024-01-30T12:46:25;15.80;;;13.60;;
9997;SDS011;5038;53.064;8.624;2024-01-30T12:48:55;14.87;;;13.57;;
9997;SDS011;5038;53.064;8.624;2024-01-30T12:51:24;15.50;;;13.83;;
9997;SDS011;5038;53.064;8.624;2024-01-30T12:53:52;17.00;;;13.70;;
9997;SDS011;5038;53.064;8.624;2024-01-30T12:56:20;14.90;;;13.50;;
9997;SDS011;5038;53.064;8.624;2024-01-30T12:58:50;15.67;;;14.17;;
9997;SDS011;5038;53.064;8.624;2024-01-30T13:01:21;15.73;;;14.13;;
9997;SDS011;5038;53.064;8.624;2024-01-30T13:03:49;14.93;;;12.80;;
9997;SDS011;5038;53.064;8.624;2024-01-30T13:06:18;14.80;;;13.40;;
9997;SDS011;5038;53.064;8.624;2024-01-30T13:08:46;14.60;;;13.30;;
9997;SDS011;5038;53.064;8.624;2024-01-30T13:11:14;13.53;;;12.30;;
9997;SDS011;5038;53.064;8.624;2024-01-30T13:13:47;14.73;;;12.50;;
9997;SDS011;5038;53.064;8.624;2024-01-30T13:16:17;15.47;;;14.10;;
9997;SDS011;5038;53.064;8.624;2024-01-30T13:18:45;14.70;;;13.27;;
9997;SDS011;5038;53.064;8.624;2024-01-30T13:21:13;15.40;;;13.80;;
9997;SDS011;5038;53.064;8.624;2024-01-30T13:23:42;15.10;;;13.70;;
9997;SDS011;5038;53.064;8.624;2024-01-30T13:26:10;13.90;;;12.60;;
9997;SDS011;5038;53.064;8.624;2024-01-30T13:28:39;14.87;;;13.40;;
9997;SDS011;5038;53.064;8.624;2024-01-30T13:31:07;15.53;;;13.83;;
9997;SDS011;5038;53.064;8.624;2024-01-30T13:33:36;14.80;;;13.30;;
9997;SDS011;5038;53.064;8.624;2024-01-30T13:36:05;14.83;;;13.40;;
9997;SDS011;5038;53.064;8.624;2024-01-30T13:38:34;14.17;;;12.77;;
9997;SDS011;5038;53.064;8.624;2024-01-30T13:41:02;12.57;;;11.00;;
9997;SDS011;5038;53.064;8.624;2024-01-30T13:43:31;14.90;;;13.63;;
9997;SDS011;5038;53.064;8.624;2024-01-30T13:45:59;14.77;;;13.40;;
9997;SDS011;5038;53.064;8.624;2024-01-30T13:48:28;15.53;;;14.13;;
9997;SDS011;5038;53.064;8.624;2024-01-30T13:50:57;16.80;;;14.83;;
9997;SDS011;5038;53.064;8.624;2024-01-30T13:53:26;15.80;;;14.20;;
9997;SDS011;5038;53.064;8.624;2024-01-30T13:55:54;16.03;;;14.63;;
9997;SDS011;5038;53.064;8.624;2024-01-30T13:58:23;16.60;;;14.10;;
9997;SDS011;5038;53.064;8.624;2024-01-30T14:00:51;15.00;;;13.33;;
9997;SDS011;5038;53.064;8.624;2024-01-30T14:03:20;15.53;;;13.70;;
9997;SDS011;5038;53.064;8.624;2024-01-30T14:05:48;16.80;;;15.30;;
9997;SDS011;5038;53.064;8.624;2024-01-30T14:08:18;16.70;;;15.00;;
9997;SDS011;5038;53.064;8.624;2024-01-30T14:10:48;17.00;;;15.27;;
9997;SDS011;5038;53.064;8.624;2024-01-30T14:13:16;16.23;;;14.73;;
9997;SDS011;5038;53.064;8.624;2024-01-30T14:15:44;16.90;;;15.30;;
9997;SDS011;5038;53.064;8.624;2024-01-30T14:18:12;16.10;;;14.60;;
9997;SDS011;5038;53.064;8.624;2024-01-30T14:20:41;16.83;;;15.33;;
9997;SDS011;5038;53.064;8.624;2024-01-30T14:23:09;16.77;;;14.97;;
9997;SDS011;5038;53.064;8.624;2024-01-30T14:25:39;16.13;;;14.63;;
9997;SDS011;5038;53.064;8.624;2024-01-30T14:28:07;15.23;;;13.73;;
9997;SDS011;5038;53.064;8.624;2024-01-30T14:30:36;16.23;;;14.53;;
9997;SDS011;5038;53.064;8.624;2024-01-30T14:33:04;13.23;;;11.97;;
9997;SDS011;5038;53.064;8.624;2024-01-30T14:35:33;15.70;;;14.23;;
9997;SDS011;5038;53.064;8.624;2024-01-30T14:38:01;16.00;;;13.73;;
9997;SDS011;5038;53.064;8.624;2024-01-30T14:40:31;15.73;;;14.23;;
9997;SDS011;5038;53.064;8.624;2024-01-30T14:43:01;15.47;;;14.03;;
9997;SDS011;5038;53.064;8.624;2024-01-30T14:45:30;14.53;;;13.30;;
9997;SDS011;5038;53.064;8.624;2024-01-30T14:47:59;14.60;;;13.27;;
9997;SDS011;5038;53.064;8.624;2024-01-30T14:50:27;15.63;;;14.23;;
9997;SDS011;5038;53.064;8.624;2024-01-30T14:52:55;15.40;;;14.00;;
9997;SDS011;5038;53.064;8.624;2024-01-30T14:55:25;15.10;;;13.70;;
9997;SDS011;5038;53.064;8.624;2024-01-30T14:57:53;14.10;;;12.73;;
9997;SDS011;5038;53.064;8.624;2024-01-30T15:00:26;13.27;;;11.87;;
9997;SDS011;5038;53.064;8.624;2024-01-30T15:02:54;13.73;;;12.40;;